sensor_id;sensor_type;location;lat;lon;timestamp;P1;durP1;ratioP1;P2;durP2;ratioP2
6878;SDS011;3478;51.462;7.338;2022-12-07T00:03:51;48.70;;;28.97;;
6878;SDS011;3478;51.462;7.338;2022-12-07T00:08:54;51.97;;;28.47;;
6878;SDS011;3478;51.462;7.338;2022-12-07T00:13:59;48.10;;;28.40;;
6878;SDS011;3478;51.462;7.338;2022-12-07T00:19:02;48.00;;;29.80;;
6878;SDS011;3478;51.462;7.338;2022-12-07T00:24:05;47.23;;;28.30;;
6878;SDS011;3478;51.462;7.338;2022-12-07T00:29:09;45.10;;;25.30;;
6878;SDS011;3478;51.462;7.338;2022-12-07T00:34:16;48.03;;;24.10;;
6878;SDS011;3478;51.462;7.338;2022-12-07T00:39:19;45.80;;;27.10;;
6878;SDS011;3478;51.462;7.338;2022-12-07T00:44:22;42.73;;;26.87;;
6878;SDS011;3478;51.462;7.338;2022-12-07T00:49:24;39.77;;;25.13;;
6878;SDS011;3478;51.462;7.338;2022-12-07T00:54:25;42.03;;;26.77;;
6878;SDS011;3478;51.462;7.338;2022-12-07T00:59:29;42.07;;;26.57;;
6878;SDS011;3478;51.462;7.338;2022-12-07T01:04:32;42.20;;;27.00;;
6878;SDS011;3478;51.462;7.338;2022-12-07T01:09:34;42.87;;;25.30;;
6878;SDS011;3478;51.462;7.338;2022-12-07T01:14:38;43.50;;;24.70;;
6878;SDS011;3478;51.462;7.338;2022-12-07T01:19:39;44.90;;;25.93;;
6878;SDS011;3478;51.462;7.338;2022-12-07T01:24:41;36.17;;;24.47;;
6878;SDS011;3478;51.462;7.338;2022-12-07T01:29:44;38.60;;;26.17;;
6878;SDS011;3478;51.462;7.338;2022-12-07T01:34:47;41.73;;;25.63;;
6878;SDS011;3478;51.462;7.338;2022-12-07T01:39:49;47.30;;;25.27;;
6878;SDS011;3478;51.462;7.338;2022-12-07T01:50:31;44.33;;;27.63;;
6878;SDS011;3478;51.462;7.338;2022-12-07T01:55:34;45.27;;;24.97;;
6878;SDS011;3478;51.462;7.338;2022-12-07T02:00:38;45.37;;;27.50;;
6878;SDS011;3478;51.462;7.338;2022-12-07T02:05:43;48.83;;;27.60;;
6878;SDS011;3478;51.462;7.338;2022-12-07T02:10:46;50.50;;;29.20;;
6878;SDS011;3478;51.462;7.338;2022-12-07T02:15:54;56.30;;;28.47;;
6878;SDS011;3478;51.462;7.338;2022-12-07T02:21:12;46.37;;;26.63;;
6878;SDS011;3478;51.462;7.338;2022-12-07T02:26:28;40.57;;;23.27;;
6878;SDS011;3478;51.462;7.338;2022-12-07T02:31:56;38.87;;;25.53;;
6878;SDS011;3478;51.462;7.338;2022-12-07T02:37:07;45.17;;;24.77;;
6878;SDS011;3478;51.462;7.338;2022-12-07T02:42:15;38.87;;;24.60;;
6878;SDS011;3478;51.462;7.338;2022-12-07T02:47:25;39.87;;;23.20;;
6878;SDS011;3478;51.462;7.338;2022-12-07T02:52:29;38.13;;;25.27;;
6878;SDS011;3478;51.462;7.338;2022-12-07T02:57:39;40.47;;;23.93;;
6878;SDS011;3478;51.462;7.338;2022-12-07T03:02:52;39.40;;;24.00;;
6878;SDS011;3478;51.462;7.338;2022-12-07T03:07:58;35.83;;;21.67;;
6878;SDS011;3478;51.462;7.338;2022-12-07T03:13:05;40.67;;;22.20;;
6878;SDS011;3478;51.462;7.338;2022-12-07T03:18:14;34.33;;;20.87;;
6878;SDS011;3478;51.462;7.338;2022-12-07T03:23:19;37.07;;;22.67;;
6878;SDS011;3478;51.462;7.338;2022-12-07T03:28:24;34.53;;;21.07;;
6878;SDS011;3478;51.462;7.338;2022-12-07T03:33:31;36.27;;;21.13;;
6878;SDS011;3478;51.462;7.338;2022-12-07T03:38:40;32.93;;;19.70;;
6878;SDS011;3478;51.462;7.338;2022-12-07T03:43:45;32.47;;;19.30;;
6878;SDS011;3478;51.462;7.338;2022-12-07T03:48:51;29.53;;;19.00;;
6878;SDS011;3478;51.462;7.338;2022-12-07T03:54:00;28.97;;;18.43;;
6878;SDS011;3478;51.462;7.338;2022-12-07T03:59:08;36.50;;;20.07;;
6878;SDS011;3478;51.462;7.338;2022-12-07T04:04:13;34.80;;;19.80;;
6878;SDS011;3478;51.462;7.338;2022-12-07T04:09:15;26.33;;;17.40;;
6878;SDS011;3478;51.462;7.338;2022-12-07T04:14:17;28.10;;;19.43;;
6878;SDS011;3478;51.462;7.338;2022-12-07T04:19:24;31.30;;;20.20;;
6878;SDS011;3478;51.462;7.338;2022-12-07T04:24:28;38.33;;;20.30;;
6878;SDS011;3478;51.462;7.338;2022-12-07T04:29:30;27.93;;;19.97;;
6878;SDS011;3478;51.462;7.338;2022-12-07T04:34:33;32.80;;;19.00;;
6878;SDS011;3478;51.462;7.338;2022-12-07T04:39:35;26.83;;;17.40;;
6878;SDS011;3478;51.462;7.338;2022-12-07T04:44:36;25.70;;;18.03;;
6878;SDS011;3478;51.462;7.338;2022-12-07T04:49:40;34.47;;;17.60;;
6878;SDS011;3478;51.462;7.338;2022-12-07T04:54:42;30.60;;;17.90;;
6878;SDS011;3478;51.462;7.338;2022-12-07T04:59:43;28.30;;;17.70;;
6878;SDS011;3478;51.462;7.338;2022-12-07T05:04:46;23.00;;;17.10;;
6878;SDS011;3478;51.462;7.338;2022-12-07T05:09:48;36.43;;;18.47;;
6878;SDS011;3478;51.462;7.338;2022-12-07T05:14:50;28.30;;;17.80;;
6878;SDS011;3478;51.462;7.338;2022-12-07T05:19:53;28.83;;;18.57;;
6878;SDS011;3478;51.462;7.338;2022-12-07T05:24:55;36.60;;;17.90;;
6878;SDS011;3478;51.462;7.338;2022-12-07T05:29:57;39.23;;;19.70;;
6878;SDS011;3478;51.462;7.338;2022-12-07T05:35:00;33.07;;;18.57;;
6878;SDS011;3478;51.462;7.338;2022-12-07T05:40:02;39.23;;;20.03;;
6878;SDS011;3478;51.462;7.338;2022-12-07T05:45:05;32.10;;;17.57;;
6878;SDS011;3478;51.462;7.338;2022-12-07T05:50:09;28.53;;;16.67;;
6878;SDS011;3478;51.462;7.338;2022-12-07T05:55:11;25.90;;;16.47;;
6878;SDS011;3478;51.462;7.338;2022-12-07T06:00:14;30.50;;;16.97;;
6878;SDS011;3478;51.462;7.338;2022-12-07T06:05:18;26.07;;;17.03;;
6878;SDS011;3478;51.462;7.338;2022-12-07T06:10:19;30.47;;;18.27;;
6878;SDS011;3478;51.462;7.338;2022-12-07T06:15:21;30.03;;;18.73;;
6878;SDS011;3478;51.462;7.338;2022-12-07T06:20:25;27.60;;;17.80;;
6878;SDS011;3478;51.462;7.338;2022-12-07T06:25:27;32.70;;;18.90;;
6878;SDS011;3478;51.462;7.338;2022-12-07T06:30:29;26.83;;;16.43;;
6878;SDS011;3478;51.462;7.338;2022-12-07T06:35:33;31.23;;;18.17;;
6878;SDS011;3478;51.462;7.338;2022-12-07T06:40:35;27.63;;;17.43;;
6878;SDS011;3478;51.462;7.338;2022-12-07T06:45:37;34.10;;;19.37;;
6878;SDS011;3478;51.462;7.338;2022-12-07T06:50:40;29.53;;;18.40;;
6878;SDS011;3478;51.462;7.338;2022-12-07T06:55:42;34.47;;;17.80;;
6878;SDS011;3478;51.462;7.338;2022-12-07T07:00:43;26.57;;;15.97;;
6878;SDS011;3478;51.462;7.338;2022-12-07T07:05:47;35.83;;;17.17;;
6878;SDS011;3478;51.462;7.338;2022-12-07T07:10:49;28.97;;;16.43;;
6878;SDS011;3478;51.462;7.338;2022-12-07T07:15:51;26.73;;;16.10;;
6878;SDS011;3478;51.462;7.338;2022-12-07T07:20:54;24.80;;;15.30;;
6878;SDS011;3478;51.462;7.338;2022-12-07T07:25:56;24.37;;;14.37;;
6878;SDS011;3478;51.462;7.338;2022-12-07T07:30:58;23.00;;;12.13;;
6878;SDS011;3478;51.462;7.338;2022-12-07T07:36:01;22.87;;;13.80;;
6878;SDS011;3478;51.462;7.338;2022-12-07T07:41:03;19.10;;;13.87;;
6878;SDS011;3478;51.462;7.338;2022-12-07T07:46:05;27.30;;;15.13;;
6878;SDS011;3478;51.462;7.338;2022-12-07T07:51:08;20.03;;;12.13;;
6878;SDS011;3478;51.462;7.338;2022-12-07T07:56:10;20.90;;;11.63;;
6878;SDS011;3478;51.462;7.338;2022-12-07T08:01:12;13.90;;;10.93;;
6878;SDS011;3478;51.462;7.338;2022-12-07T08:06:16;18.93;;;10.27;;
6878;SDS011;3478;51.462;7.338;2022-12-07T08:11:18;19.57;;;12.03;;
6878;SDS011;3478;51.462;7.338;2022-12-07T08:16:20;21.13;;;12.00;;
6878;SDS011;3478;51.462;7.338;2022-12-07T08:21:23;20.23;;;10.90;;
6878;SDS011;3478;51.462;7.338;2022-12-07T08:26:25;17.63;;;9.40;;
6878;SDS011;3478;51.462;7.338;2022-12-07T08:31:27;19.03;;;10.43;;
6878;SDS011;3478;51.462;7.338;2022-12-07T08:36:30;18.00;;;11.00;;
6878;SDS011;3478;51.462;7.338;2022-12-07T08:41:32;15.50;;;9.50;;
6878;SDS011;3478;51.462;7.338;2022-12-07T08:46:34;23.80;;;9.20;;
6878;SDS011;3478;51.462;7.338;2022-12-07T08:51:40;18.70;;;9.60;;
6878;SDS011;3478;51.462;7.338;2022-12-07T08:56:43;18.87;;;10.27;;
6878;SDS011;3478;51.462;7.338;2022-12-07T09:01:46;18.00;;;9.80;;
6878;SDS011;3478;51.462;7.338;2022-12-07T09:06:49;13.20;;;9.20;;
6878;SDS011;3478;51.462;7.338;2022-12-07T09:11:51;14.17;;;10.43;;
6878;SDS011;3478;51.462;7.338;2022-12-07T09:16:53;22.33;;;10.10;;
6878;SDS011;3478;51.462;7.338;2022-12-07T09:21:56;23.77;;;12.30;;
6878;SDS011;3478;51.462;7.338;2022-12-07T09:26:58;22.37;;;12.17;;
6878;SDS011;3478;51.462;7.338;2022-12-07T09:32:00;22.10;;;11.30;;
6878;SDS011;3478;51.462;7.338;2022-12-07T09:37:03;17.00;;;12.87;;
6878;SDS011;3478;51.462;7.338;2022-12-07T09:42:06;16.93;;;11.90;;
6878;SDS011;3478;51.462;7.338;2022-12-07T09:47:11;17.13;;;12.70;;
6878;SDS011;3478;51.462;7.338;2022-12-07T09:52:18;24.40;;;14.30;;
6878;SDS011;3478;51.462;7.338;2022-12-07T09:57:27;28.10;;;16.00;;
6878;SDS011;3478;51.462;7.338;2022-12-07T10:02:34;31.60;;;19.43;;
6878;SDS011;3478;51.462;7.338;2022-12-07T10:07:39;36.00;;;19.20;;
6878;SDS011;3478;51.462;7.338;2022-12-07T10:12:54;29.70;;;18.27;;
6878;SDS011;3478;51.462;7.338;2022-12-07T10:17:58;21.93;;;15.47;;
6878;SDS011;3478;51.462;7.338;2022-12-07T10:23:03;33.67;;;15.67;;
6878;SDS011;3478;51.462;7.338;2022-12-07T10:28:13;20.43;;;13.33;;
6878;SDS011;3478;51.462;7.338;2022-12-07T10:33:30;26.87;;;15.27;;
6878;SDS011;3478;51.462;7.338;2022-12-07T10:38:35;22.73;;;12.63;;
6878;SDS011;3478;51.462;7.338;2022-12-07T10:43:47;14.07;;;11.50;;
6878;SDS011;3478;51.462;7.338;2022-12-07T10:48:55;19.50;;;12.07;;
6878;SDS011;3478;51.462;7.338;2022-12-07T10:54:10;19.23;;;10.63;;
6878;SDS011;3478;51.462;7.338;2022-12-07T10:59:24;15.57;;;10.87;;
6878;SDS011;3478;51.462;7.338;2022-12-07T11:04:47;19.80;;;11.43;;
6878;SDS011;3478;51.462;7.338;2022-12-07T11:10:04;17.70;;;10.13;;
6878;SDS011;3478;51.462;7.338;2022-12-07T11:15:12;13.43;;;10.73;;
6878;SDS011;3478;51.462;7.338;2022-12-07T11:20:23;13.23;;;8.40;;
6878;SDS011;3478;51.462;7.338;2022-12-07T11:25:40;20.13;;;9.93;;
6878;SDS011;3478;51.462;7.338;2022-12-07T11:30:48;14.70;;;8.77;;
6878;SDS011;3478;51.462;7.338;2022-12-07T11:36:02;14.17;;;8.73;;
6878;SDS011;3478;51.462;7.338;2022-12-07T11:41:11;11.70;;;7.87;;
6878;SDS011;3478;51.462;7.338;2022-12-07T11:46:15;15.37;;;9.00;;
6878;SDS011;3478;51.462;7.338;2022-12-07T11:51:18;11.83;;;6.33;;
6878;SDS011;3478;51.462;7.338;2022-12-07T11:56:23;12.73;;;6.00;;
6878;SDS011;3478;51.462;7.338;2022-12-07T12:01:40;10.43;;;5.60;;
6878;SDS011;3478;51.462;7.338;2022-12-07T12:06:47;13.03;;;7.30;;
6878;SDS011;3478;51.462;7.338;2022-12-07T12:11:56;7.63;;;4.50;;
6878;SDS011;3478;51.462;7.338;2022-12-07T12:17:30;5.30;;;4.20;;
6878;SDS011;3478;51.462;7.338;2022-12-07T12:22:52;7.63;;;3.80;;
6878;SDS011;3478;51.462;7.338;2022-12-07T12:28:00;5.07;;;2.40;;
6878;SDS011;3478;51.462;7.338;2022-12-07T12:33:03;4.40;;;3.37;;
6878;SDS011;3478;51.462;7.338;2022-12-07T12:43:43;6.50;;;3.57;;
6878;SDS011;3478;51.462;7.338;2022-12-07T12:48:48;4.53;;;2.43;;
6878;SDS011;3478;51.462;7.338;2022-12-07T12:53:50;4.20;;;2.30;;
6878;SDS011;3478;51.462;7.338;2022-12-07T13:09:53;6.77;;;2.20;;
6878;SDS011;3478;51.462;7.338;2022-12-07T13:14:57;5.80;;;3.67;;
6878;SDS011;3478;51.462;7.338;2022-12-07T13:20:00;10.70;;;3.00;;
6878;SDS011;3478;51.462;7.338;2022-12-07T13:25:03;2.43;;;2.23;;
6878;SDS011;3478;51.462;7.338;2022-12-07T13:30:16;8.17;;;2.67;;
6878;SDS011;3478;51.462;7.338;2022-12-07T13:35:28;9.30;;;4.10;;
6878;SDS011;3478;51.462;7.338;2022-12-07T13:40:32;10.30;;;5.77;;
6878;SDS011;3478;51.462;7.338;2022-12-07T13:45:35;9.37;;;7.10;;
6878;SDS011;3478;51.462;7.338;2022-12-07T13:50:52;8.80;;;6.33;;
6878;SDS011;3478;51.462;7.338;2022-12-07T13:55:56;15.63;;;7.87;;
6878;SDS011;3478;51.462;7.338;2022-12-07T14:01:00;8.70;;;6.90;;
6878;SDS011;3478;51.462;7.338;2022-12-07T14:11:30;17.10;;;11.33;;
6878;SDS011;3478;51.462;7.338;2022-12-07T14:16:34;4.43;;;4.03;;
6878;SDS011;3478;51.462;7.338;2022-12-07T14:21:38;6.30;;;2.73;;
6878;SDS011;3478;51.462;7.338;2022-12-07T14:26:40;6.70;;;1.30;;
6878;SDS011;3478;51.462;7.338;2022-12-07T14:31:44;2.20;;;1.60;;
6878;SDS011;3478;51.462;7.338;2022-12-07T14:36:45;2.80;;;2.43;;
6878;SDS011;3478;51.462;7.338;2022-12-07T14:41:47;4.03;;;1.70;;
6878;SDS011;3478;51.462;7.338;2022-12-07T14:46:53;4.80;;;2.30;;
6878;SDS011;3478;51.462;7.338;2022-12-07T14:51:55;2.27;;;1.80;;
6878;SDS011;3478;51.462;7.338;2022-12-07T14:56:57;4.40;;;2.30;;
6878;SDS011;3478;51.462;7.338;2022-12-07T15:02:00;4.73;;;1.97;;
6878;SDS011;3478;51.462;7.338;2022-12-07T15:07:03;5.40;;;4.10;;
6878;SDS011;3478;51.462;7.338;2022-12-07T15:12:06;14.63;;;3.27;;
6878;SDS011;3478;51.462;7.338;2022-12-07T15:17:10;6.40;;;3.77;;
6878;SDS011;3478;51.462;7.338;2022-12-07T15:22:13;8.07;;;5.07;;
6878;SDS011;3478;51.462;7.338;2022-12-07T15:27:14;4.53;;;3.27;;
6878;SDS011;3478;51.462;7.338;2022-12-07T15:32:18;13.00;;;5.67;;
6878;SDS011;3478;51.462;7.338;2022-12-07T15:37:19;5.07;;;4.57;;
6878;SDS011;3478;51.462;7.338;2022-12-07T15:42:21;6.10;;;5.50;;
6878;SDS011;3478;51.462;7.338;2022-12-07T15:47:24;6.73;;;5.80;;
6878;SDS011;3478;51.462;7.338;2022-12-07T15:52:26;14.43;;;7.23;;
6878;SDS011;3478;51.462;7.338;2022-12-07T15:57:28;23.67;;;11.40;;
6878;SDS011;3478;51.462;7.338;2022-12-07T16:02:31;6.63;;;6.03;;
6878;SDS011;3478;51.462;7.338;2022-12-07T16:07:33;5.43;;;4.70;;
6878;SDS011;3478;51.462;7.338;2022-12-07T16:12:35;9.20;;;6.73;;
6878;SDS011;3478;51.462;7.338;2022-12-07T16:17:38;7.10;;;5.23;;
6878;SDS011;3478;51.462;7.338;2022-12-07T16:22:40;9.27;;;6.07;;
6878;SDS011;3478;51.462;7.338;2022-12-07T16:27:42;6.07;;;5.47;;
6878;SDS011;3478;51.462;7.338;2022-12-07T16:32:45;8.07;;;7.37;;
6878;SDS011;3478;51.462;7.338;2022-12-07T16:37:47;5.20;;;4.70;;
6878;SDS011;3478;51.462;7.338;2022-12-07T16:42:49;11.67;;;5.43;;
6878;SDS011;3478;51.462;7.338;2022-12-07T16:47:52;9.77;;;4.80;;
6878;SDS011;3478;51.462;7.338;2022-12-07T16:52:54;5.57;;;5.03;;
6878;SDS011;3478;51.462;7.338;2022-12-07T16:57:56;9.07;;;5.70;;
6878;SDS011;3478;51.462;7.338;2022-12-07T17:02:59;9.33;;;5.33;;
6878;SDS011;3478;51.462;7.338;2022-12-07T17:08:01;6.20;;;5.60;;
6878;SDS011;3478;51.462;7.338;2022-12-07T17:13:04;10.67;;;6.83;;
6878;SDS011;3478;51.462;7.338;2022-12-07T17:18:28;12.50;;;4.27;;
6878;SDS011;3478;51.462;7.338;2022-12-07T17:23:31;8.90;;;6.07;;
6878;SDS011;3478;51.462;7.338;2022-12-07T17:28:35;10.03;;;4.67;;
6878;SDS011;3478;51.462;7.338;2022-12-07T17:33:39;11.57;;;6.03;;
6878;SDS011;3478;51.462;7.338;2022-12-07T17:38:41;7.90;;;6.03;;
6878;SDS011;3478;51.462;7.338;2022-12-07T17:43:42;13.33;;;7.33;;
6878;SDS011;3478;51.462;7.338;2022-12-07T17:48:46;13.30;;;5.60;;
6878;SDS011;3478;51.462;7.338;2022-12-07T17:53:48;10.87;;;6.80;;
6878;SDS011;3478;51.462;7.338;2022-12-07T17:58:50;8.00;;;6.73;;
6878;SDS011;3478;51.462;7.338;2022-12-07T18:03:53;10.70;;;8.60;;
6878;SDS011;3478;51.462;7.338;2022-12-07T18:08:55;8.90;;;5.47;;
6878;SDS011;3478;51.462;7.338;2022-12-07T18:13:57;8.47;;;6.50;;
6878;SDS011;3478;51.462;7.338;2022-12-07T18:19:01;8.17;;;7.43;;
6878;SDS011;3478;51.462;7.338;2022-12-07T18:24:05;7.53;;;6.87;;
6878;SDS011;3478;51.462;7.338;2022-12-07T18:29:11;9.13;;;6.67;;
6878;SDS011;3478;51.462;7.338;2022-12-07T18:34:16;9.47;;;8.50;;
6878;SDS011;3478;51.462;7.338;2022-12-07T18:39:19;10.87;;;7.00;;
6878;SDS011;3478;51.462;7.338;2022-12-07T18:44:21;14.60;;;9.40;;
6878;SDS011;3478;51.462;7.338;2022-12-07T18:49:24;11.43;;;8.23;;
6878;SDS011;3478;51.462;7.338;2022-12-07T18:54:26;9.77;;;8.70;;
6878;SDS011;3478;51.462;7.338;2022-12-07T18:59:28;28.03;;;23.03;;
6878;SDS011;3478;51.462;7.338;2022-12-07T19:04:54;13.57;;;8.43;;
6878;SDS011;3478;51.462;7.338;2022-12-07T19:09:56;12.27;;;8.47;;
6878;SDS011;3478;51.462;7.338;2022-12-07T19:14:57;12.37;;;9.27;;
6878;SDS011;3478;51.462;7.338;2022-12-07T19:20:01;11.77;;;9.17;;
6878;SDS011;3478;51.462;7.338;2022-12-07T19:25:04;11.70;;;9.63;;
6878;SDS011;3478;51.462;7.338;2022-12-07T19:30:07;13.63;;;8.80;;
6878;SDS011;3478;51.462;7.338;2022-12-07T19:35:11;12.47;;;9.73;;
6878;SDS011;3478;51.462;7.338;2022-12-07T19:40:13;13.03;;;11.00;;
6878;SDS011;3478;51.462;7.338;2022-12-07T19:45:15;16.40;;;11.97;;
6878;SDS011;3478;51.462;7.338;2022-12-07T19:50:18;14.43;;;10.90;;
6878;SDS011;3478;51.462;7.338;2022-12-07T19:55:20;12.87;;;11.10;;
6878;SDS011;3478;51.462;7.338;2022-12-07T20:00:22;20.60;;;12.80;;
6878;SDS011;3478;51.462;7.338;2022-12-07T20:05:25;13.90;;;11.50;;
6878;SDS011;3478;51.462;7.338;2022-12-07T20:10:27;20.87;;;11.83;;
6878;SDS011;3478;51.462;7.338;2022-12-07T20:15:29;18.80;;;14.27;;
6878;SDS011;3478;51.462;7.338;2022-12-07T20:20:32;20.80;;;15.00;;
6878;SDS011;3478;51.462;7.338;2022-12-07T20:25:34;16.23;;;13.20;;
6878;SDS011;3478;51.462;7.338;2022-12-07T20:30:36;17.40;;;13.80;;
6878;SDS011;3478;51.462;7.338;2022-12-07T20:35:39;22.17;;;14.63;;
6878;SDS011;3478;51.462;7.338;2022-12-07T20:40:44;22.00;;;15.40;;
6878;SDS011;3478;51.462;7.338;2022-12-07T20:45:48;21.13;;;16.10;;
6878;SDS011;3478;51.462;7.338;2022-12-07T20:50:51;21.83;;;15.17;;
6878;SDS011;3478;51.462;7.338;2022-12-07T20:55:53;21.50;;;16.70;;
6878;SDS011;3478;51.462;7.338;2022-12-07T21:00:58;24.43;;;17.00;;
6878;SDS011;3478;51.462;7.338;2022-12-07T21:06:02;28.00;;;18.37;;
6878;SDS011;3478;51.462;7.338;2022-12-07T21:11:07;20.30;;;16.43;;
6878;SDS011;3478;51.462;7.338;2022-12-07T21:16:10;25.80;;;17.67;;
6878;SDS011;3478;51.462;7.338;2022-12-07T21:21:15;27.27;;;19.77;;
6878;SDS011;3478;51.462;7.338;2022-12-07T21:26:19;29.00;;;21.27;;
6878;SDS011;3478;51.462;7.338;2022-12-07T21:31:23;30.70;;;21.57;;
6878;SDS011;3478;51.462;7.338;2022-12-07T21:36:27;31.13;;;20.10;;
6878;SDS011;3478;51.462;7.338;2022-12-07T21:41:29;33.10;;;21.90;;
6878;SDS011;3478;51.462;7.338;2022-12-07T21:46:33;38.77;;;23.17;;
6878;SDS011;3478;51.462;7.338;2022-12-07T21:51:36;39.03;;;23.87;;
6878;SDS011;3478;51.462;7.338;2022-12-07T21:56:39;38.07;;;26.00;;
6878;SDS011;3478;51.462;7.338;2022-12-07T22:01:44;45.33;;;25.27;;
6878;SDS011;3478;51.462;7.338;2022-12-07T22:06:48;40.33;;;24.20;;
6878;SDS011;3478;51.462;7.338;2022-12-07T22:11:51;36.83;;;25.40;;
6878;SDS011;3478;51.462;7.338;2022-12-07T22:16:53;49.93;;;24.50;;
6878;SDS011;3478;51.462;7.338;2022-12-07T22:21:56;32.60;;;21.00;;
6878;SDS011;3478;51.462;7.338;2022-12-07T22:26:58;36.13;;;22.43;;
6878;SDS011;3478;51.462;7.338;2022-12-07T22:31:59;36.73;;;23.07;;
6878;SDS011;3478;51.462;7.338;2022-12-07T22:37:03;34.37;;;22.50;;
6878;SDS011;3478;51.462;7.338;2022-12-07T22:42:05;37.43;;;23.13;;
6878;SDS011;3478;51.462;7.338;2022-12-07T22:47:06;30.10;;;21.13;;
6878;SDS011;3478;51.462;7.338;2022-12-07T22:52:10;37.30;;;22.27;;
6878;SDS011;3478;51.462;7.338;2022-12-07T22:57:11;31.03;;;20.63;;
6878;SDS011;3478;51.462;7.338;2022-12-07T23:02:14;24.40;;;18.60;;
6878;SDS011;3478;51.462;7.338;2022-12-07T23:07:17;31.50;;;18.57;;
6878;SDS011;3478;51.462;7.338;2022-12-07T23:12:18;25.60;;;17.40;;
6878;SDS011;3478;51.462;7.338;2022-12-07T23:17:46;24.07;;;17.50;;
6878;SDS011;3478;51.462;7.338;2022-12-07T23:22:49;27.80;;;17.43;;
6878;SDS011;3478;51.462;7.338;2022-12-07T23:27:51;22.47;;;16.23;;
6878;SDS011;3478;51.462;7.338;2022-12-07T23:32:53;21.90;;;14.33;;
6878;SDS011;3478;51.462;7.338;2022-12-07T23:37:56;28.87;;;17.37;;
6878;SDS011;3478;51.462;7.338;2022-12-07T23:42:58;37.40;;;22.13;;
6878;SDS011;3478;51.462;7.338;2022-12-07T23:48:00;28.73;;;16.83;;
6878;SDS011;3478;51.462;7.338;2022-12-07T23:53:03;30.20;;;18.63;;
6878;SDS011;3478;51.462;7.338;2022-12-07T23:58:05;27.00;;;17.17;;
